Time;durP1;ratioP1;P1;durP2;ratioP2;P2;SDS_P1;SDS_P2;PMS_P1;PMS_P2;Temp;Humidity;BMP_temperature;BMP_pressure;BME280_temperature;BME280_humidity;BME280_pressure;Samples;Min_cycle;Max_cycle;Signal;HPM_P1;HPM_P2
2021/09/04 00:00:52;;;;;;;13.33;9.97;;;17.10;75.50;;;;;;4929189;29;20474;-44
2021/09/04 00:03:19;;;;;;;13.70;9.90;;;17.10;75.50;;;;;;4926734;29;20493;-45
2021/09/04 00:05:46;;;;;;;13.00;10.57;;;17.00;75.70;;;;;;4932674;29;20545;-45
2021/09/04 00:08:13;;;;;;;11.10;8.90;;;17.00;75.70;;;;;;4928488;29;20771;-45
2021/09/04 00:10:39;;;;;;;10.77;9.10;;;17.00;75.70;;;;;;4931094;29;20464;-45
2021/09/04 00:13:06;;;;;;;11.73;9.67;;;17.00;75.70;;;;;;4927454;29;20480;-45
2021/09/04 00:15:33;;;;;;;15.47;9.50;;;16.90;75.80;;;;;;4928230;29;20464;-45
2021/09/04 00:18:00;;;;;;;13.40;9.70;;;16.90;75.90;;;;;;4927116;29;20472;-45
2021/09/04 00:20:27;;;;;;;12.63;8.90;;;16.90;76.00;;;;;;4928552;28;20464;-45
2021/09/04 00:22:53;;;;;;;11.30;9.77;;;16.90;76.00;;;;;;4926909;29;20986;-45
2021/09/04 00:25:21;;;;;;;11.20;9.67;;;16.90;76.00;;;;;;4930082;29;20471;-45
2021/09/04 00:27:48;;;;;;;13.20;10.47;;;16.90;76.00;;;;;;4932107;29;20464;-45
2021/09/04 00:30:15;;;;;;;12.27;9.50;;;16.80;76.00;;;;;;4921939;29;20477;-45
2021/09/04 00:32:42;;;;;;;12.30;9.47;;;16.80;76.10;;;;;;4928163;29;20459;-44
2021/09/04 00:35:09;;;;;;;13.20;10.03;;;16.80;76.10;;;;;;4946069;28;21044;-45
2021/09/04 00:37:36;;;;;;;10.27;9.03;;;16.80;76.20;;;;;;4930097;29;20463;-45
2021/09/04 00:40:05;;;;;;;11.13;8.43;;;16.80;76.30;;;;;;4925384;29;20462;-45
2021/09/04 00:42:31;;;;;;;14.87;10.43;;;16.80;76.30;;;;;;4926328;29;20463;-45
2021/09/04 00:44:58;;;;;;;12.30;9.10;;;16.80;76.30;;;;;;4932079;29;20483;-45
2021/09/04 00:47:26;;;;;;;11.93;9.80;;;16.80;76.30;;;;;;4930309;29;20495;-45
2021/09/04 00:49:53;;;;;;;14.43;10.50;;;16.80;76.30;;;;;;4929809;29;20455;-45
2021/09/04 00:52:20;;;;;;;14.53;9.80;;;16.70;76.40;;;;;;4931456;29;20463;-45
2021/09/04 00:54:47;;;;;;;11.57;9.67;;;16.70;76.50;;;;;;4929081;29;20966;-45
2021/09/04 00:57:18;;;;;;;10.63;9.07;;;16.70;76.60;;;;;;4926246;29;20480;-45
2021/09/04 00:59:44;;;;;;;12.13;9.63;;;16.70;76.70;;;;;;4927972;29;20455;-44
2021/09/04 01:02:16;;;;;;;11.20;9.50;;;16.70;76.70;;;;;;4929554;29;20990;-45
2021/09/04 01:04:44;;;;;;;11.67;8.93;;;16.70;76.70;;;;;;4927517;29;20467;-45
2021/09/04 01:07:11;;;;;;;10.60;8.93;;;16.60;76.80;;;;;;4929821;29;20498;-45
2021/09/04 01:09:39;;;;;;;10.63;8.50;;;16.60;76.70;;;;;;4933641;29;20459;-45
2021/09/04 01:12:07;;;;;;;10.20;8.60;;;16.60;76.70;;;;;;4925114;29;20467;-45
2021/09/04 01:14:34;;;;;;;11.70;9.60;;;16.50;76.80;;;;;;4929229;29;20490;-45
2021/09/04 01:17:01;;;;;;;10.97;8.67;;;16.50;76.70;;;;;;4930389;29;20471;-45
2021/09/04 01:19:27;;;;;;;9.37;8.40;;;16.50;76.70;;;;;;4929599;29;20526;-45
2021/09/04 01:21:54;;;;;;;13.20;9.50;;;16.50;76.50;;;;;;4930002;29;20469;-45
2021/09/04 01:24:21;;;;;;;9.27;7.87;;;16.50;76.40;;;;;;4929268;29;20463;-45
2021/09/04 01:26:50;;;;;;;11.20;8.50;;;16.40;76.40;;;;;;4932725;29;20500;-45
2021/09/04 01:29:17;;;;;;;10.63;8.33;;;16.40;76.30;;;;;;4912630;29;20465;-45
2021/09/04 01:31:44;;;;;;;10.13;9.00;;;16.40;76.30;;;;;;4928454;29;21028;-45
2021/09/04 01:34:10;;;;;;;10.30;8.30;;;16.30;76.50;;;;;;4929372;29;20454;-45
2021/09/04 01:36:41;;;;;;;11.83;8.93;;;16.30;76.60;;;;;;4933447;29;20472;-45
2021/09/04 01:39:09;;;;;;;9.27;8.37;;;16.30;76.60;;;;;;4930789;29;20471;-45
2021/09/04 01:41:38;;;;;;;9.60;8.20;;;16.30;76.50;;;;;;4931097;29;20474;-45
2021/09/04 01:44:05;;;;;;;11.40;7.50;;;16.30;76.60;;;;;;4931210;29;20456;-45
2021/09/04 01:46:34;;;;;;;11.80;8.90;;;16.20;76.50;;;;;;4932592;29;20487;-44
2021/09/04 01:49:02;;;;;;;10.90;8.57;;;16.20;76.60;;;;;;4932778;29;20467;-44
2021/09/04 01:51:29;;;;;;;8.33;7.00;;;16.20;76.60;;;;;;4933930;29;20463;-44
2021/09/04 01:53:55;;;;;;;10.40;7.73;;;16.10;76.70;;;;;;4933758;29;20467;-44
2021/09/04 01:56:22;;;;;;;9.03;7.60;;;16.10;76.70;;;;;;4935478;29;20927;-44
2021/09/04 01:58:49;;;;;;;11.53;7.33;;;16.10;76.70;;;;;;4932837;29;20545;-44
2021/09/04 02:01:15;;;;;;;14.30;8.63;;;16.10;76.70;;;;;;4930349;29;20853;-44
2021/09/04 02:03:43;;;;;;;10.60;8.30;;;16.10;76.60;;;;;;4936292;29;20851;-44
2021/09/04 02:06:09;;;;;;;9.33;7.60;;;16.00;76.60;;;;;;4930752;29;20493;-44
2021/09/04 02:08:36;;;;;;;11.10;8.50;;;16.00;76.60;;;;;;4935141;29;20533;-44
2021/09/04 02:11:03;;;;;;;8.57;7.77;;;16.00;76.60;;;;;;4930578;29;20501;-45
2021/09/04 02:13:30;;;;;;;10.77;8.60;;;15.90;76.70;;;;;;4932338;29;21005;-45
2021/09/04 02:15:58;;;;;;;8.33;7.40;;;15.90;76.70;;;;;;4932546;29;20554;-45
2021/09/04 02:18:25;;;;;;;9.30;8.20;;;15.80;76.80;;;;;;4932273;28;20500;-44
2021/09/04 02:20:51;;;;;;;9.17;7.70;;;15.80;76.80;;;;;;4933002;29;20482;-45
2021/09/04 02:23:18;;;;;;;9.77;8.23;;;15.80;76.70;;;;;;4934146;29;20502;-45
2021/09/04 02:25:45;;;;;;;8.97;7.70;;;15.80;76.80;;;;;;4932035;28;20817;-45
2021/09/04 02:28:14;;;;;;;10.80;7.83;;;15.70;76.80;;;;;;4928961;29;20451;-44
2021/09/04 02:30:41;;;;;;;7.70;6.90;;;15.70;76.90;;;;;;4927693;29;20938;-45
2021/09/04 02:33:10;;;;;;;12.20;9.33;;;15.70;76.90;;;;;;4929080;29;20503;-45
2021/09/04 02:35:37;;;;;;;9.70;8.10;;;15.70;76.90;;;;;;4933941;29;20497;-45
2021/09/04 02:38:04;;;;;;;9.10;8.20;;;15.60;76.90;;;;;;4933796;29;20464;-44
2021/09/04 02:40:31;;;;;;;10.83;8.30;;;15.60;76.90;;;;;;4929754;29;20559;-44
2021/09/04 02:42:57;;;;;;;9.73;7.80;;;15.60;77.00;;;;;;4926040;29;20463;-44
2021/09/04 02:45:24;;;;;;;9.13;7.80;;;15.60;77.00;;;;;;4931852;29;20475;-44
2021/09/04 02:47:51;;;;;;;9.20;7.93;;;15.60;77.10;;;;;;4929356;29;20487;-45
2021/09/04 02:50:19;;;;;;;9.80;8.07;;;15.50;77.00;;;;;;4930589;29;20644;-45
2021/09/04 02:52:46;;;;;;;8.37;7.50;;;15.50;77.10;;;;;;4927900;29;20468;-45
2021/09/04 02:55:12;;;;;;;8.73;7.80;;;15.50;77.10;;;;;;4932371;28;20477;-44
2021/09/04 02:57:41;;;;;;;11.27;8.50;;;15.50;77.20;;;;;;4931434;29;20469;-44
2021/09/04 03:00:08;;;;;;;8.70;7.20;;;15.50;77.20;;;;;;4928423;29;20468;-47
2021/09/04 03:02:35;;;;;;;8.97;7.63;;;15.50;77.20;;;;;;4929154;29;20456;-47
2021/09/04 03:05:03;;;;;;;10.47;8.37;;;15.50;77.30;;;;;;4930237;29;20469;-48
2021/09/04 03:07:30;;;;;;;8.93;7.37;;;15.40;77.50;;;;;;4931226;29;20492;-48
2021/09/04 03:09:57;;;;;;;13.30;8.53;;;15.40;77.40;;;;;;4927661;29;20453;-48
2021/09/04 03:12:23;;;;;;;8.80;7.90;;;15.40;77.40;;;;;;4935327;28;20547;-48
2021/09/04 03:14:50;;;;;;;9.87;8.27;;;15.30;77.40;;;;;;4928770;29;20476;-48
2021/09/04 03:17:17;;;;;;;11.53;9.13;;;15.30;77.50;;;;;;4929876;29;20472;-48
2021/09/04 03:19:44;;;;;;;10.73;7.60;;;15.30;77.60;;;;;;4927637;29;20475;-48
2021/09/04 03:22:10;;;;;;;9.83;8.57;;;15.30;77.80;;;;;;4927634;29;20473;-48
2021/09/04 03:24:38;;;;;;;11.33;8.53;;;15.30;78.00;;;;;;4929601;29;20471;-48
2021/09/04 03:27:06;;;;;;;9.10;8.20;;;15.30;78.00;;;;;;4928559;29;20499;-49
2021/09/04 03:29:33;;;;;;;10.33;8.60;;;15.30;78.10;;;;;;4925942;29;20535;-48
2021/09/04 03:32:00;;;;;;;10.60;8.70;;;15.20;78.20;;;;;;4925066;29;20487;-48
2021/09/04 03:34:27;;;;;;;11.90;9.23;;;15.20;78.30;;;;;;4930212;29;20831;-48
2021/09/04 03:36:56;;;;;;;11.37;8.63;;;15.20;78.40;;;;;;4930458;28;20500;-48
2021/09/04 03:39:23;;;;;;;9.90;8.40;;;15.10;78.50;;;;;;4927687;29;20894;-48
2021/09/04 03:41:49;;;;;;;9.50;8.50;;;15.10;78.50;;;;;;4929759;28;20503;-48
2021/09/04 03:44:16;;;;;;;11.80;8.40;;;15.10;78.50;;;;;;4930386;29;20484;-48
2021/09/04 03:46:43;;;;;;;12.10;9.30;;;15.10;78.50;;;;;;4931374;29;20495;-48
2021/09/04 03:49:10;;;;;;;13.07;8.17;;;15.10;78.50;;;;;;4931056;29;20468;-48
2021/09/04 03:51:37;;;;;;;10.97;8.40;;;15.10;78.50;;;;;;4925953;29;20515;-48
2021/09/04 03:54:03;;;;;;;11.10;7.57;;;15.10;78.60;;;;;;4931983;29;21608;-48
2021/09/04 03:56:30;;;;;;;10.60;8.00;;;15.10;78.70;;;;;;4929755;29;20460;-48
2021/09/04 03:58:57;;;;;;;9.20;8.20;;;15.10;78.80;;;;;;4929404;29;21024;-48
2021/09/04 04:01:23;;;;;;;10.07;8.20;;;15.10;78.80;;;;;;4926916;29;20950;-48
2021/09/04 04:03:51;;;;;;;11.17;8.00;;;15.00;78.80;;;;;;4925508;29;20467;-48
2021/09/04 04:06:17;;;;;;;10.63;7.97;;;15.00;78.80;;;;;;4934076;29;20478;-48
2021/09/04 04:08:44;;;;;;;10.40;8.40;;;15.00;78.80;;;;;;4926026;29;20515;-48
2021/09/04 04:11:12;;;;;;;10.20;8.87;;;15.00;78.70;;;;;;4928814;29;20459;-48
2021/09/04 04:13:39;;;;;;;10.37;8.47;;;15.00;78.70;;;;;;4931068;29;20898;-48
2021/09/04 04:16:07;;;;;;;9.90;7.90;;;15.00;78.80;;;;;;4927884;29;20499;-48
2021/09/04 04:18:34;;;;;;;8.83;7.70;;;15.00;78.80;;;;;;4928584;29;20460;-48
2021/09/04 04:21:02;;;;;;;10.20;7.83;;;15.00;78.90;;;;;;4929513;29;20540;-48
2021/09/04 04:23:29;;;;;;;9.97;8.53;;;14.90;79.00;;;;;;4923638;29;21152;-48
2021/09/04 04:25:55;;;;;;;8.87;7.97;;;14.90;78.90;;;;;;4925708;29;21094;-48
2021/09/04 04:28:22;;;;;;;10.30;8.50;;;14.90;79.00;;;;;;4939898;28;20497;-48
2021/09/04 04:30:49;;;;;;;9.47;8.23;;;14.90;79.00;;;;;;4928334;29;20515;-48
2021/09/04 04:33:16;;;;;;;9.47;8.40;;;14.80;79.10;;;;;;4925288;29;20827;-48
2021/09/04 04:35:43;;;;;;;9.33;8.10;;;14.80;79.00;;;;;;4926884;29;21037;-48
2021/09/04 04:38:10;;;;;;;7.90;7.10;;;14.80;78.90;;;;;;4926402;29;20464;-48
2021/09/04 04:40:37;;;;;;;8.80;7.97;;;14.80;78.70;;;;;;4926945;29;20472;-48
2021/09/04 04:43:03;;;;;;;10.80;8.57;;;14.80;78.60;;;;;;4923632;29;20464;-48
2021/09/04 04:45:30;;;;;;;10.63;8.40;;;14.80;78.60;;;;;;4940181;28;20464;-48
2021/09/04 04:47:57;;;;;;;8.63;7.57;;;14.80;78.80;;;;;;4928680;29;20496;-48
2021/09/04 04:50:24;;;;;;;8.87;7.33;;;14.80;78.80;;;;;;4930277;29;20470;-48
2021/09/04 04:52:51;;;;;;;10.33;8.53;;;14.80;78.90;;;;;;4927718;29;20468;-48
2021/09/04 04:55:18;;;;;;;9.33;8.20;;;14.70;78.90;;;;;;4930091;29;20472;-48
2021/09/04 04:57:44;;;;;;;9.30;7.77;;;14.70;79.00;;;;;;4928800;29;20472;-48
2021/09/04 05:00:14;;;;;;;13.00;9.93;;;14.70;79.10;;;;;;4927773;29;20453;-48
2021/09/04 05:02:40;;;;;;;9.00;8.00;;;14.70;79.20;;;;;;4927249;29;20464;-48
2021/09/04 05:05:09;;;;;;;10.33;7.63;;;14.70;79.20;;;;;;4927654;29;20781;-48
2021/09/04 05:07:35;;;;;;;10.77;8.50;;;14.60;79.40;;;;;;4928166;29;20487;-48
2021/09/04 05:10:03;;;;;;;10.57;8.47;;;14.70;79.50;;;;;;4929820;29;20462;-48
2021/09/04 05:12:30;;;;;;;11.17;8.60;;;14.70;79.60;;;;;;4930836;29;20458;-48
2021/09/04 05:14:57;;;;;;;9.10;8.17;;;14.70;79.50;;;;;;4928717;29;20475;-48
2021/09/04 05:17:23;;;;;;;10.07;8.17;;;14.70;79.50;;;;;;4932782;29;20469;-48
2021/09/04 05:19:51;;;;;;;10.17;7.50;;;14.70;79.50;;;;;;4930339;29;20462;-48
2021/09/04 05:22:18;;;;;;;10.57;9.47;;;14.70;79.60;;;;;;4935041;29;20494;-48
2021/09/04 05:24:44;;;;;;;12.57;9.07;;;14.70;79.80;;;;;;4935092;29;20477;-48
2021/09/04 05:27:11;;;;;;;8.97;7.60;;;14.70;79.90;;;;;;4928979;29;20508;-48
2021/09/04 05:29:38;;;;;;;11.13;9.00;;;14.80;79.90;;;;;;4931423;29;20459;-48
2021/09/04 05:32:07;;;;;;;11.00;7.70;;;14.80;79.80;;;;;;4932148;29;20829;-48
2021/09/04 05:34:34;;;;;;;9.73;8.73;;;14.80;79.80;;;;;;4933220;29;20464;-48
2021/09/04 05:37:01;;;;;;;8.20;7.00;;;14.80;79.90;;;;;;4932546;29;20468;-48
2021/09/04 05:39:28;;;;;;;9.20;7.57;;;14.80;80.00;;;;;;4931459;29;20804;-48
2021/09/04 05:41:54;;;;;;;8.63;7.47;;;14.80;80.00;;;;;;4936669;29;20470;-48
2021/09/04 05:44:24;;;;;;;9.73;8.27;;;14.90;80.10;;;;;;4932666;29;21062;-48
2021/09/04 05:46:51;;;;;;;9.73;7.93;;;14.90;80.00;;;;;;4930422;29;20566;-48
2021/09/04 05:49:17;;;;;;;12.80;8.40;;;14.90;80.10;;;;;;4925789;29;20471;-48
2021/09/04 05:51:44;;;;;;;9.97;8.40;;;15.00;80.10;;;;;;4931926;29;20456;-48
2021/09/04 05:54:11;;;;;;;12.40;8.60;;;15.00;80.00;;;;;;4930288;29;20882;-48
2021/09/04 05:56:38;;;;;;;9.37;8.10;;;15.10;79.90;;;;;;4929170;29;20471;-48
2021/09/04 05:59:04;;;;;;;10.20;8.43;;;15.10;79.90;;;;;;4932403;29;20459;-48
2021/09/04 06:01:31;;;;;;;12.83;9.43;;;15.10;80.00;;;;;;4926305;29;20566;-48
2021/09/04 06:03:58;;;;;;;10.70;7.93;;;15.20;79.90;;;;;;4928741;29;20456;-48
2021/09/04 06:06:25;;;;;;;10.70;9.60;;;15.30;79.80;;;;;;4928401;29;20846;-48
2021/09/04 06:08:52;;;;;;;10.90;9.37;;;15.30;79.70;;;;;;4931904;29;21031;-48
2021/09/04 06:11:21;;;;;;;11.27;8.50;;;15.40;79.50;;;;;;4929112;29;20889;-48
2021/09/04 06:13:47;;;;;;;10.17;8.70;;;15.50;79.40;;;;;;4928407;29;20583;-48
2021/09/04 06:16:14;;;;;;;11.47;9.10;;;15.50;79.20;;;;;;4928536;29;20474;-48
2021/09/04 06:18:41;;;;;;;9.97;8.93;;;15.60;79.10;;;;;;4930688;29;20464;-48
2021/09/04 06:21:08;;;;;;;10.70;8.90;;;15.60;79.20;;;;;;4934481;29;20448;-48
2021/09/04 06:23:34;;;;;;;10.77;8.10;;;15.60;79.30;;;;;;4933858;29;20464;-48
2021/09/04 06:26:01;;;;;;;10.53;8.00;;;15.60;79.50;;;;;;4930652;29;20463;-48
2021/09/04 06:28:28;;;;;;;15.03;8.60;;;15.60;79.70;;;;;;4931069;29;20964;-48
2021/09/04 06:30:55;;;;;;;11.77;9.30;;;15.70;79.90;;;;;;4935258;29;20841;-48
2021/09/04 06:33:21;;;;;;;9.73;7.93;;;15.80;80.00;;;;;;4928021;29;20465;-48
2021/09/04 06:35:49;;;;;;;11.67;8.67;;;15.90;79.50;;;;;;4931788;29;20562;-48
2021/09/04 06:38:16;;;;;;;11.07;8.53;;;15.90;79.40;;;;;;4931696;29;20474;-48
2021/09/04 06:40:43;;;;;;;12.13;8.67;;;16.00;79.20;;;;;;4932994;29;20468;-48
2021/09/04 06:43:10;;;;;;;11.40;8.67;;;16.10;78.80;;;;;;4934355;29;20842;-48
2021/09/04 06:45:36;;;;;;;12.10;8.30;;;16.10;78.90;;;;;;4930925;29;20575;-48
2021/09/04 06:48:03;;;;;;;10.73;9.60;;;16.10;79.20;;;;;;4931624;29;20495;-48
2021/09/04 06:50:30;;;;;;;10.27;9.27;;;16.10;79.50;;;;;;4934921;29;20478;-48
2021/09/04 06:52:57;;;;;;;9.73;8.20;;;16.10;79.60;;;;;;4927723;29;20464;-48
2021/09/04 06:55:24;;;;;;;10.23;8.93;;;16.20;79.70;;;;;;4930680;29;20440;-48
2021/09/04 06:57:50;;;;;;;18.00;9.50;;;16.30;79.60;;;;;;4936662;28;20449;-48
2021/09/04 07:00:18;;;;;;;13.03;10.03;;;16.40;79.50;;;;;;4931785;29;20466;-48
2021/09/04 07:02:44;;;;;;;9.70;7.83;;;16.50;79.30;;;;;;4928257;29;20507;-48
2021/09/04 07:05:11;;;;;;;9.37;8.30;;;16.50;79.20;;;;;;4927399;29;20495;-48
2021/09/04 07:07:38;;;;;;;12.80;7.93;;;16.60;78.90;;;;;;4931933;29;20492;-48
2021/09/04 07:10:06;;;;;;;8.83;7.47;;;16.70;78.80;;;;;;4923956;29;20555;-48
2021/09/04 07:12:34;;;;;;;9.87;8.53;;;16.80;78.50;;;;;;4930934;29;20540;-47
2021/09/04 07:15:01;;;;;;;11.27;7.73;;;16.90;78.30;;;;;;4929214;29;20554;-48
2021/09/04 07:17:28;;;;;;;10.50;8.10;;;16.90;78.00;;;;;;4932419;29;20475;-48
2021/09/04 07:19:54;;;;;;;8.73;7.70;;;17.10;77.70;;;;;;4930140;29;21034;-48
2021/09/04 07:22:21;;;;;;;13.60;9.10;;;17.20;77.70;;;;;;4930763;29;20475;-48
2021/09/04 07:24:48;;;;;;;10.97;8.97;;;17.30;77.40;;;;;;4929356;29;20449;-48
2021/09/04 07:27:15;;;;;;;11.20;8.27;;;17.40;77.10;;;;;;4930820;29;20461;-48
2021/09/04 07:29:41;;;;;;;14.97;9.60;;;17.60;76.70;;;;;;4931468;29;20969;-48
2021/09/04 07:32:08;;;;;;;11.43;8.93;;;17.70;76.40;;;;;;4929373;29;20469;-48
2021/09/04 07:34:35;;;;;;;11.43;8.60;;;17.90;75.80;;;;;;4932105;29;20492;-48
2021/09/04 07:37:02;;;;;;;11.23;9.23;;;18.10;75.50;;;;;;4928337;29;20855;-48
2021/09/04 07:39:28;;;;;;;9.37;7.90;;;18.30;75.10;;;;;;4927723;29;20461;-48
2021/09/04 07:41:55;;;;;;;10.87;9.10;;;18.50;74.30;;;;;;4930846;29;20476;-48
2021/09/04 07:44:22;;;;;;;20.17;9.40;;;18.70;73.90;;;;;;4933267;29;20463;-48
2021/09/04 07:46:48;;;;;;;10.47;7.83;;;18.90;73.50;;;;;;4929280;29;20973;-48
2021/09/04 07:49:15;;;;;;;10.43;7.57;;;19.20;72.60;;;;;;4935770;29;20555;-48
2021/09/04 07:51:42;;;;;;;9.40;7.03;;;19.40;72.00;;;;;;4934816;29;20465;-48
2021/09/04 07:54:09;;;;;;;10.27;8.33;;;19.60;71.90;;;;;;4936053;29;20909;-48
2021/09/04 07:56:37;;;;;;;9.53;7.83;;;19.90;71.10;;;;;;4936120;29;20460;-48
2021/09/04 07:59:04;;;;;;;10.10;7.67;;;20.10;69.60;;;;;;4936276;29;20479;-48
2021/09/04 08:01:30;;;;;;;8.60;6.60;;;20.30;69.10;;;;;;4933137;29;20460;-48
2021/09/04 08:03:58;;;;;;;10.30;7.50;;;20.60;69.00;;;;;;4930185;29;20464;-48
2021/09/04 08:06:24;;;;;;;8.50;7.27;;;20.90;68.50;;;;;;4941236;29;20469;-49
2021/09/04 08:08:54;;;;;;;9.03;7.37;;;21.10;67.50;;;;;;4937533;29;20492;-49
2021/09/04 08:11:20;;;;;;;10.90;7.60;;;21.40;66.60;;;;;;4931840;29;20478;-46
2021/09/04 08:13:47;;;;;;;8.53;6.73;;;21.60;65.70;;;;;;4935113;28;20515;-47
2021/09/04 08:16:14;;;;;;;9.93;6.33;;;21.90;65.30;;;;;;4935439;29;20469;-48
2021/09/04 08:18:41;;;;;;;7.07;6.37;;;22.10;65.00;;;;;;4938846;29;20885;-47
2021/09/04 08:21:10;;;;;;;10.23;6.80;;;22.40;64.30;;;;;;4931600;29;20471;-47
2021/09/04 08:23:37;;;;;;;8.93;7.30;;;22.60;63.40;;;;;;4933722;29;20467;-48
2021/09/04 08:26:03;;;;;;;7.13;6.40;;;22.80;62.80;;;;;;4929975;29;20479;-48
2021/09/04 08:28:30;;;;;;;8.90;7.50;;;23.00;62.40;;;;;;4930607;29;20818;-48
2021/09/04 08:30:57;;;;;;;9.13;7.37;;;23.20;62.20;;;;;;4936372;29;20459;-48
2021/09/04 08:33:24;;;;;;;13.50;9.10;;;23.40;61.30;;;;;;4934452;29;20539;-48
2021/09/04 08:35:50;;;;;;;8.10;6.60;;;23.60;60.70;;;;;;4935987;29;20871;-49
2021/09/04 08:38:17;;;;;;;10.37;8.03;;;23.90;60.80;;;;;;4934994;29;20542;-48
2021/09/04 08:40:46;;;;;;;9.27;8.07;;;24.10;60.00;;;;;;4941044;29;20462;-48
2021/09/04 08:43:13;;;;;;;10.63;7.40;;;24.30;58.90;;;;;;4935820;29;20956;-48
2021/09/04 08:45:44;;;;;;;12.87;7.63;;;24.50;58.60;;;;;;4929879;29;20533;-48
2021/09/04 08:48:12;;;;;;;10.53;8.20;;;24.80;58.20;;;;;;4934489;29;20914;-48
2021/09/04 08:50:39;;;;;;;10.40;7.90;;;25.00;56.80;;;;;;4935698;29;20538;-48
2021/09/04 08:53:06;;;;;;;14.30;8.47;;;25.20;56.70;;;;;;4934172;29;20500;-49
2021/09/04 08:55:33;;;;;;;13.77;8.57;;;25.40;56.20;;;;;;4932717;29;20991;-49
2021/09/04 08:58:00;;;;;;;11.00;8.33;;;25.60;55.60;;;;;;4934577;29;20459;-49
2021/09/04 09:00:36;;;;;;;8.97;7.17;;;25.80;55.50;;;;;;4934994;29;20471;-49
2021/09/04 09:03:04;;;;;;;8.03;7.23;;;26.00;54.70;;;;;;4941640;29;21047;-49
2021/09/04 09:05:39;;;;;;;11.00;8.50;;;26.10;54.40;;;;;;4940660;29;20456;-49
2021/09/04 09:08:13;;;;;;;8.80;7.87;;;26.30;54.20;;;;;;4936122;29;20491;-49
2021/09/04 09:10:40;;;;;;;9.00;7.73;;;26.60;54.00;;;;;;4942172;29;20449;-50
2021/09/04 09:13:07;;;;;;;10.10;7.57;;;26.90;53.80;;;;;;4921745;29;20862;-50
2021/09/04 09:15:37;;;;;;;7.27;6.57;;;27.10;53.30;;;;;;4936101;29;20558;-50
2021/09/04 09:18:10;;;;;;;7.33;6.57;;;27.40;52.90;;;;;;4949866;28;20478;-50
2021/09/04 09:20:39;;;;;;;8.97;7.20;;;27.70;52.60;;;;;;4940499;29;20459;-50
2021/09/04 09:23:14;;;;;;;7.40;6.60;;;27.80;51.60;;;;;;4937019;29;20824;-50
2021/09/04 09:25:42;;;;;;;8.40;7.20;;;28.10;51.10;;;;;;4938363;29;20461;-51
2021/09/04 09:28:14;;;;;;;9.83;7.20;;;28.30;50.40;;;;;;4934504;29;20242;-49
2021/09/04 09:30:42;;;;;;;8.73;6.73;;;28.40;50.20;;;;;;4937213;29;20296;-49
2021/09/04 09:33:13;;;;;;;9.23;6.70;;;28.50;50.00;;;;;;4935530;29;20294;-49
2021/09/04 09:35:45;;;;;;;7.73;6.50;;;28.60;50.00;;;;;;4939030;29;20638;-49
2021/09/04 09:38:18;;;;;;;6.60;6.00;;;28.50;49.60;;;;;;4935729;29;20208;-49
2021/09/04 09:40:46;;;;;;;10.23;6.70;;;28.30;50.10;;;;;;4931663;29;20585;-50
2021/09/04 09:43:22;;;;;;;11.90;7.90;;;28.20;50.40;;;;;;4936226;29;20227;-50
2021/09/04 09:45:54;;;;;;;8.20;6.40;;;28.00;50.80;;;;;;4937677;29;20253;-50
2021/09/04 09:48:24;;;;;;;8.53;6.70;;;27.90;50.00;;;;;;4936420;29;20242;-50
2021/09/04 09:50:52;;;;;;;6.40;5.80;;;27.70;50.60;;;;;;4930491;29;20208;-50
2021/09/04 09:53:21;;;;;;;6.80;5.60;;;27.50;50.80;;;;;;4937134;29;20226;-50
2021/09/04 09:55:49;;;;;;;7.50;5.83;;;27.30;50.50;;;;;;4937912;29;21033;-50
2021/09/04 09:58:19;;;;;;;6.83;6.13;;;27.30;50.40;;;;;;4934536;29;20467;-50
2021/09/04 10:00:48;;;;;;;7.17;5.70;;;27.20;50.40;;;;;;4932561;29;20848;-50
2021/09/04 10:03:18;;;;;;;6.67;5.90;;;27.20;50.40;;;;;;4933730;29;20459;-50
2021/09/04 10:05:46;;;;;;;18.33;7.03;;;27.30;49.90;;;;;;4936701;29;20498;-50
2021/09/04 10:08:16;;;;;;;6.40;5.43;;;27.40;49.70;;;;;;4934094;29;20506;-50
2021/09/04 10:10:43;;;;;;;7.57;6.13;;;27.60;49.50;;;;;;4937531;29;20226;-50
2021/09/04 10:13:14;;;;;;;6.03;5.40;;;27.80;49.10;;;;;;4932833;29;20227;-51
2021/09/04 10:15:46;;;;;;;6.93;6.23;;;28.20;48.20;;;;;;4929565;29;20463;-50
2021/09/04 10:18:14;;;;;;;9.20;5.77;;;28.60;47.40;;;;;;4934903;28;20271;-48
2021/09/04 10:20:41;;;;;;;7.17;5.80;;;29.00;46.30;;;;;;4936480;29;20208;-49
2021/09/04 10:23:29;;;;;;;7.68;6.25;;;29.40;46.00;;;;;;4930068;29;20216;-49
2021/09/04 10:26:31;;;;;;;7.88;5.60;;;30.00;45.10;;;;;;4935186;29;20212;-49
2021/09/04 10:29:01;;;;;;;6.57;5.40;;;30.60;44.30;;;;;;4936729;29;20233;-49
2021/09/04 10:31:45;;;;;;;6.50;5.53;;;31.00;43.80;;;;;;4939636;29;20307;-48
2021/09/04 10:34:16;;;;;;;8.23;5.55;;;31.30;43.20;;;;;;4932098;29;20200;-49
2021/09/04 10:36:59;;;;;;;21.92;6.90;;;31.50;42.30;;;;;;4932597;29;20791;-48
2021/09/04 10:39:53;;;;;;;6.65;6.03;;;31.70;41.70;;;;;;4931004;29;20254;-50
2021/09/04 10:42:27;;;;;;;6.15;5.45;;;32.00;41.50;;;;;;4932188;29;20294;-50
2021/09/04 10:44:58;;;;;;;10.65;5.50;;;32.10;41.10;;;;;;4929565;29;20310;-50
2021/09/04 10:47:26;;;;;;;9.63;5.47;;;32.30;40.60;;;;;;4932605;29;20216;-48
2021/09/04 10:49:56;;;;;;;7.15;5.22;;;32.40;40.30;;;;;;4927792;29;20228;-48
2021/09/04 10:52:56;;;;;;;7.72;5.40;;;32.40;40.40;;;;;;4927972;29;20216;-48
2021/09/04 10:55:27;;;;;;;5.80;5.07;;;32.10;40.40;;;;;;4930915;29;20678;-45
2021/09/04 10:58:09;;;;;;;5.47;4.97;;;31.90;40.20;;;;;;4933774;29;20215;-45
2021/09/04 11:00:39;;;;;;;6.20;5.00;;;31.70;40.20;;;;;;4928863;29;20218;-46
2021/09/04 11:03:09;;;;;;;5.32;4.30;;;31.40;40.90;;;;;;4925274;29;20250;-46
2021/09/04 11:05:51;;;;;;;5.40;4.90;;;31.00;41.60;;;;;;4924324;29;20271;-46
2021/09/04 11:08:21;;;;;;;10.70;4.90;;;30.60;41.90;;;;;;4928852;29;20220;-46
2021/09/04 11:11:06;;;;;;;6.00;5.40;;;30.30;41.80;;;;;;4929707;29;20208;-46
2021/09/04 11:13:43;;;;;;;5.88;5.18;;;30.00;42.30;;;;;;4932926;29;20227;-46
2021/09/04 11:16:29;;;;;;;6.55;5.40;;;29.70;42.40;;;;;;4937210;29;20211;-46
2021/09/04 11:19:13;;;;;;;6.07;5.20;;;29.40;42.30;;;;;;4931502;29;20208;-46
2021/09/04 11:21:46;;;;;;;6.30;5.70;;;29.10;42.60;;;;;;4930010;29;20222;-46
2021/09/04 11:24:20;;;;;;;5.30;4.80;;;28.70;43.90;;;;;;4939116;29;20633;-46
2021/09/04 11:27:09;;;;;;;7.00;5.80;;;28.50;44.50;;;;;;4939433;29;20645;-46
2021/09/04 11:29:53;;;;;;;6.07;5.20;;;28.30;45.00;;;;;;4934806;29;20227;-46
2021/09/04 11:32:25;;;;;;;5.37;4.60;;;28.10;45.30;;;;;;4932715;29;20283;-46
2021/09/04 11:34:53;;;;;;;5.03;4.53;;;28.00;45.80;;;;;;4932922;29;20215;-46
2021/09/04 11:37:35;;;;;;;5.13;4.67;;;27.80;45.60;;;;;;4931944;29;20212;-46
2021/09/04 11:40:24;;;;;;;5.20;4.30;;;27.60;45.10;;;;;;4935056;29;20729;-47
2021/09/04 11:42:51;;;;;;;5.23;4.73;;;27.50;45.70;;;;;;4935722;29;20203;-47
2021/09/04 11:45:23;;;;;;;6.10;5.50;;;27.30;46.10;;;;;;4933269;29;20489;-47
2021/09/04 11:47:51;;;;;;;5.70;5.20;;;27.20;46.00;;;;;;4933992;28;20290;-47
2021/09/04 11:50:29;;;;;;;6.80;5.20;;;27.00;46.00;;;;;;4931108;29;20496;-47
2021/09/04 11:52:56;;;;;;;6.30;4.67;;;26.90;46.60;;;;;;4932483;29;20466;-48
2021/09/04 11:55:25;;;;;;;6.43;5.60;;;26.80;46.70;;;;;;4938437;29;20454;-47
2021/09/04 11:57:57;;;;;;;9.13;5.90;;;26.70;47.10;;;;;;4934873;29;20973;-47
2021/09/04 12:00:25;;;;;;;5.57;5.00;;;26.70;47.60;;;;;;4937596;29;20450;-47
2021/09/04 12:02:59;;;;;;;7.40;5.53;;;26.60;47.70;;;;;;4938089;29;20467;-47
2021/09/04 12:05:29;;;;;;;6.47;4.70;;;26.50;47.90;;;;;;4936377;29;20460;-49
2021/09/04 12:08:05;;;;;;;6.60;5.40;;;26.50;48.00;;;;;;4936246;29;20462;-48
2021/09/04 12:10:34;;;;;;;8.57;5.47;;;26.50;48.30;;;;;;4934346;29;20499;-48
2021/09/04 12:13:04;;;;;;;5.17;4.67;;;26.50;48.40;;;;;;4930182;29;20475;-47
2021/09/04 12:15:32;;;;;;;6.87;5.43;;;26.50;48.50;;;;;;4946300;28;20482;-47
2021/09/04 12:18:02;;;;;;;8.10;5.63;;;26.50;48.40;;;;;;4934020;29;20542;-47
2021/09/04 12:20:31;;;;;;;5.70;5.00;;;26.40;47.50;;;;;;4933687;29;20489;-47
2021/09/04 12:23:01;;;;;;;5.77;5.20;;;26.30;47.70;;;;;;4931327;29;20530;-47
2021/09/04 12:25:34;;;;;;;7.53;5.53;;;26.20;47.80;;;;;;4935150;29;20459;-47
2021/09/04 12:28:07;;;;;;;6.63;5.13;;;26.20;48.40;;;;;;4945459;28;20471;-47
2021/09/04 12:30:53;;;;;;;6.90;6.30;;;26.20;48.60;;;;;;4937896;29;20475;-47
2021/09/04 12:33:20;;;;;;;7.00;5.67;;;26.10;48.30;;;;;;4936920;29;20463;-47
2021/09/04 12:35:55;;;;;;;6.20;5.60;;;26.10;48.30;;;;;;4932330;28;20487;-47
2021/09/04 12:38:25;;;;;;;6.40;5.80;;;26.10;48.50;;;;;;4930730;29;20459;-47
2021/09/04 12:41:08;;;;;;;6.00;5.40;;;26.20;49.30;;;;;;4940629;29;20455;-47
2021/09/04 12:44:07;;;;;;;5.97;5.40;;;26.20;49.20;;;;;;4936555;29;20498;-47
2021/09/04 12:46:39;;;;;;;5.97;5.37;;;26.30;49.30;;;;;;4921185;29;20459;-47
2021/09/04 12:49:22;;;;;;;6.83;5.97;;;26.30;49.20;;;;;;4931351;29;20493;-47